Time;durP1;ratioP1;P1;durP2;ratioP2;P2;SDS_P1;SDS_P2;PMS_P1;PMS_P2;Temp;Humidity;BMP_temperature;BMP_pressure;BME280_temperature;BME280_humidity;BME280_pressure;Samples;Min_cycle;Max_cycle;Signal;HPM_P1;HPM_P2
2022/01/05 00:00:48;;;;;;;11.07;2.20;;;2.70;99.90;;;;;;4949468;28;20049;-87
2022/01/05 00:03:14;;;;;;;16.33;2.33;;;2.70;99.90;;;;;;4946383;28;20441;-86
2022/01/05 00:05:40;;;;;;;11.00;2.17;;;2.70;99.90;;;;;;4957053;28;20049;-86
2022/01/05 00:08:06;;;;;;;12.98;2.20;;;2.70;99.90;;;;;;4936775;28;20055;-88
2022/01/05 00:10:32;;;;;;;13.90;2.38;;;2.60;99.90;;;;;;4964207;28;20050;-88
2022/01/05 00:12:58;;;;;;;10.48;2.00;;;2.60;99.90;;;;;;4907332;28;20343;-87
2022/01/05 00:15:24;;;;;;;9.68;1.70;;;2.50;99.90;;;;;;4929950;28;20053;-87
2022/01/05 00:17:50;;;;;;;11.10;2.30;;;2.60;99.90;;;;;;4937085;28;20408;-86
2022/01/05 00:20:16;;;;;;;17.23;2.42;;;2.70;99.90;;;;;;4946906;28;20073;-87
2022/01/05 00:22:41;;;;;;;11.77;2.15;;;2.60;99.90;;;;;;4938781;28;20048;-87
2022/01/05 00:25:15;;;;;;;11.93;2.45;;;2.70;99.90;;;;;;4968115;28;20728;-88
2022/01/05 00:27:41;;;;;;;14.55;2.28;;;2.70;99.90;;;;;;4932311;28;20548;-86
2022/01/05 00:30:08;;;;;;;11.65;2.20;;;2.80;99.90;;;;;;4932052;28;20343;-86
2022/01/05 00:32:33;;;;;;;13.32;2.17;;;2.70;99.90;;;;;;4963679;28;20145;-87
2022/01/05 00:34:59;;;;;;;12.60;2.15;;;2.80;99.90;;;;;;4947503;28;20588;-88
2022/01/05 00:37:25;;;;;;;13.10;1.88;;;2.90;99.90;;;;;;4950513;28;20103;-87
2022/01/05 00:39:51;;;;;;;13.85;2.75;;;2.90;99.90;;;;;;4969334;28;20041;-86
2022/01/05 00:42:17;;;;;;;13.60;2.35;;;2.80;99.90;;;;;;4970547;28;20428;-86
2022/01/05 00:44:43;;;;;;;15.88;2.58;;;2.90;99.90;;;;;;4967472;28;20045;-88
2022/01/05 00:47:09;;;;;;;13.48;2.60;;;2.90;99.90;;;;;;4950380;28;20037;-87
2022/01/05 00:49:37;;;;;;;11.65;1.88;;;3.00;99.90;;;;;;4968404;28;20554;-89
2022/01/05 00:52:03;;;;;;;15.20;2.30;;;3.20;99.90;;;;;;4948292;28;20053;-88
2022/01/05 00:54:29;;;;;;;11.70;1.98;;;3.20;99.90;;;;;;4968844;28;20124;-88
2022/01/05 00:56:55;;;;;;;15.13;2.50;;;3.10;99.90;;;;;;4956924;28;20560;-89
2022/01/05 00:59:21;;;;;;;12.73;2.13;;;3.00;99.90;;;;;;4950398;28;20588;-88
2022/01/05 01:01:49;;;;;;;10.73;2.03;;;3.00;99.90;;;;;;4951464;28;20703;-90
2022/01/05 01:04:15;;;;;;;13.70;2.40;;;2.90;99.90;;;;;;4948558;28;20505;-90
2022/01/05 01:06:41;;;;;;;15.35;2.17;;;2.80;99.90;;;;;;4949762;28;20800;-87
2022/01/05 01:09:08;;;;;;;14.15;2.33;;;2.70;99.90;;;;;;4947344;28;20082;-87
2022/01/05 01:11:34;;;;;;;11.75;2.40;;;2.70;99.90;;;;;;4963998;28;20535;-86
2022/01/05 01:14:00;;;;;;;14.25;3.00;;;2.60;99.90;;;;;;4984749;28;20052;-86
2022/01/05 01:16:26;;;;;;;13.50;2.50;;;2.50;99.90;;;;;;4968542;28;20506;-87
2022/01/05 01:18:52;;;;;;;17.13;2.78;;;2.60;99.90;;;;;;4950756;28;20049;-87
2022/01/05 01:21:17;;;;;;;15.93;2.60;;;2.50;99.90;;;;;;4969261;28;20690;-86
2022/01/05 01:23:54;;;;;;;19.23;2.70;;;2.50;99.90;;;;;;4986287;28;20080;-89
2022/01/05 01:26:20;;;;;;;16.38;2.85;;;2.50;99.90;;;;;;4982318;28;20075;-86
2022/01/05 01:28:46;;;;;;;16.10;2.25;;;2.50;99.90;;;;;;4948953;28;20044;-87
2022/01/05 01:31:14;;;;;;;11.00;1.98;;;2.60;99.90;;;;;;4948563;28;20699;-87
2022/01/05 01:33:40;;;;;;;13.68;2.50;;;2.60;99.90;;;;;;4962886;28;20037;-88
2022/01/05 01:36:05;;;;;;;12.07;2.92;;;2.50;99.90;;;;;;4949204;28;20056;-86
2022/01/05 01:38:31;;;;;;;13.50;2.47;;;2.60;99.90;;;;;;4933960;28;20268;-87
2022/01/05 01:40:57;;;;;;;13.25;2.50;;;2.50;99.90;;;;;;4935041;28;20537;-86
2022/01/05 01:43:23;;;;;;;13.82;2.60;;;2.50;99.90;;;;;;4913262;28;20502;-87
2022/01/05 01:45:49;;;;;;;14.07;2.40;;;2.50;99.90;;;;;;4937647;28;20044;-87
2022/01/05 01:48:15;;;;;;;11.70;2.75;;;2.50;99.90;;;;;;4916218;28;20041;-87
2022/01/05 01:50:41;;;;;;;14.93;2.58;;;2.60;99.90;;;;;;4946113;28;20480;-87
2022/01/05 01:53:07;;;;;;;14.32;2.20;;;2.50;99.90;;;;;;4922810;28;20903;-89
2022/01/05 01:55:35;;;;;;;14.15;2.35;;;2.50;99.90;;;;;;4911565;28;20049;-86
2022/01/05 01:58:01;;;;;;;13.25;2.13;;;2.50;99.90;;;;;;4900041;28;20848;-89
2022/01/05 02:00:29;;;;;;;14.07;2.10;;;2.60;99.90;;;;;;4905150;28;20064;-87
2022/01/05 02:02:55;;;;;;;15.32;2.55;;;2.60;99.90;;;;;;4931264;28;20057;-85
2022/01/05 02:05:21;;;;;;;16.73;2.67;;;2.60;99.90;;;;;;4939385;28;20547;-88
2022/01/05 02:07:48;;;;;;;12.00;2.03;;;2.50;99.90;;;;;;4911170;28;20052;-87
2022/01/05 02:10:15;;;;;;;14.75;2.42;;;2.50;99.90;;;;;;4913099;28;20131;-86
2022/01/05 02:12:43;;;;;;;15.23;2.25;;;2.50;99.90;;;;;;4910730;28;20080;-86
2022/01/05 02:15:10;;;;;;;12.75;2.28;;;2.50;99.90;;;;;;4925214;28;20046;-87
2022/01/05 02:17:55;;;;;;;13.07;2.53;;;2.40;99.90;;;;;;4911572;28;20312;-86
2022/01/05 02:20:25;;;;;;;12.88;2.08;;;2.50;99.90;;;;;;4924865;28;20822;-86
2022/01/05 02:22:54;;;;;;;14.95;2.28;;;2.50;99.90;;;;;;4905743;28;20086;-87
2022/01/05 02:25:20;;;;;;;16.08;2.38;;;2.50;99.90;;;;;;4886861;28;20507;-87
2022/01/05 02:27:50;;;;;;;17.90;2.53;;;2.60;99.90;;;;;;4925250;28;20057;-86
2022/01/05 02:30:26;;;;;;;16.08;2.78;;;2.40;99.90;;;;;;4928801;28;20123;-87
2022/01/05 02:32:52;;;;;;;14.77;2.70;;;2.50;99.90;;;;;;4908480;28;20049;-86
2022/01/05 02:35:18;;;;;;;11.88;2.33;;;2.50;99.90;;;;;;4923424;28;20049;-89
2022/01/05 02:37:52;;;;;;;10.80;2.20;;;2.40;99.90;;;;;;4911393;28;20073;-86
2022/01/05 02:40:21;;;;;;;;;;;2.40;99.90;;;;;;4928554;28;20350;-87
2022/01/05 02:42:50;;;;;;;10.63;2.45;;;2.40;99.90;;;;;;4926884;28;19921;-87
2022/01/05 02:45:16;;;;;;;10.32;1.98;;;2.40;99.90;;;;;;4901144;28;20902;-88
2022/01/05 02:47:42;;;;;;;13.32;2.17;;;2.30;99.90;;;;;;4923669;28;20045;-86
2022/01/05 02:50:11;;;;;;;14.40;2.47;;;2.30;99.90;;;;;;4926870;28;20068;-85
2022/01/05 02:52:37;;;;;;;14.82;2.30;;;2.40;99.90;;;;;;4942052;28;20064;-87
2022/01/05 02:55:04;;;;;;;11.35;2.10;;;2.40;99.90;;;;;;4974633;28;20044;-87
2022/01/05 02:57:33;;;;;;;17.70;2.35;;;2.50;99.90;;;;;;4944242;28;20455;-86
2022/01/05 02:59:59;;;;;;;12.93;2.63;;;2.40;99.90;;;;;;4970654;28;20550;-87
2022/01/05 03:02:25;;;;;;;12.95;2.13;;;2.40;99.90;;;;;;4928066;28;20053;-87
2022/01/05 03:04:53;;;;;;;15.07;3.03;;;2.40;99.90;;;;;;4977503;28;20449;-86
2022/01/05 03:07:19;;;;;;;15.07;2.30;;;2.40;99.90;;;;;;4941511;28;20490;-86
2022/01/05 03:09:45;;;;;;;14.32;2.20;;;2.40;99.90;;;;;;4975543;28;20748;-89
2022/01/05 03:12:11;;;;;;;14.20;2.45;;;2.40;99.90;;;;;;4976916;28;20048;-85
2022/01/05 03:14:39;;;;;;;13.00;2.63;;;2.50;99.90;;;;;;4940202;28;20332;-87
2022/01/05 03:17:05;;;;;;;18.30;2.38;;;2.50;99.90;;;;;;4958628;28;20183;-87
2022/01/05 03:19:31;;;;;;;15.00;2.20;;;2.50;99.90;;;;;;4939137;28;20080;-87
2022/01/05 03:21:57;;;;;;;16.35;2.80;;;2.50;99.90;;;;;;4927223;28;20074;-85
2022/01/05 03:24:23;;;;;;;16.15;2.47;;;2.50;99.90;;;;;;4961329;28;20103;-86
2022/01/05 03:26:49;;;;;;;15.75;2.60;;;2.50;99.90;;;;;;4943673;28;20255;-86
2022/01/05 03:29:17;;;;;;;13.10;2.47;;;2.50;99.90;;;;;;4942257;28;20584;-86
2022/01/05 03:31:43;;;;;;;13.85;2.30;;;2.50;99.90;;;;;;4956618;28;20055;-85
2022/01/05 03:34:16;;;;;;;15.90;2.88;;;2.50;99.90;;;;;;4923243;28;20038;-86
2022/01/05 03:36:42;;;;;;;12.77;2.00;;;2.50;99.90;;;;;;4926805;28;20064;-86
2022/01/05 03:39:08;;;;;;;13.68;2.38;;;2.40;99.90;;;;;;4921162;28;20045;-87
2022/01/05 03:41:36;;;;;;;15.20;2.60;;;2.40;99.90;;;;;;4979412;28;20526;-85
2022/01/05 03:44:04;;;;;;;13.50;2.30;;;2.40;99.90;;;;;;4959567;28;20068;-87
2022/01/05 03:46:31;;;;;;;14.98;2.42;;;2.40;99.90;;;;;;4933050;28;20542;-87
2022/01/05 03:48:57;;;;;;;17.63;2.90;;;2.40;99.90;;;;;;4942822;28;20049;-86
2022/01/05 03:51:23;;;;;;;14.52;2.10;;;2.40;99.90;;;;;;4948749;28;20518;-86
2022/01/05 03:53:49;;;;;;;13.25;2.28;;;2.30;99.90;;;;;;4980998;28;20053;-86
2022/01/05 03:56:15;;;;;;;13.95;2.90;;;2.40;99.90;;;;;;4944753;28;20041;-91
2022/01/05 03:58:40;;;;;;;15.35;2.55;;;2.40;99.90;;;;;;4949579;28;20529;-87
2022/01/05 04:01:06;;;;;;;17.00;2.88;;;2.40;99.90;;;;;;4933141;28;20124;-84
2022/01/05 04:03:32;;;;;;;15.68;2.90;;;2.50;99.90;;;;;;4929903;28;20049;-86
2022/01/05 04:05:57;;;;;;;12.57;2.05;;;2.40;99.90;;;;;;4926544;28;20045;-86
2022/01/05 04:08:26;;;;;;;14.07;2.40;;;2.50;99.90;;;;;;4943223;28;20126;-86
2022/01/05 04:10:52;;;;;;;13.48;2.20;;;2.50;99.90;;;;;;4962595;28;20120;-85
2022/01/05 04:13:18;;;;;;;13.50;2.38;;;2.50;99.90;;;;;;4945413;28;20051;-85
2022/01/05 04:15:44;;;;;;;13.10;2.40;;;2.50;99.90;;;;;;4943730;28;20063;-85
2022/01/05 04:18:10;;;;;;;15.02;2.70;;;2.60;99.90;;;;;;4976475;28;20547;-84
2022/01/05 04:20:36;;;;;;;16.58;2.70;;;2.50;99.90;;;;;;4931173;28;20593;-86
2022/01/05 04:23:01;;;;;;;14.40;2.20;;;2.50;99.90;;;;;;4930735;28;20524;-85
2022/01/05 04:25:27;;;;;;;15.05;2.53;;;2.50;99.90;;;;;;4926703;28;20050;-86
2022/01/05 04:27:53;;;;;;;13.50;2.90;;;2.50;99.90;;;;;;4952228;28;20612;-86
2022/01/05 04:30:19;;;;;;;14.57;2.72;;;2.50;99.90;;;;;;4928502;28;20588;-84
2022/01/05 04:32:45;;;;;;;20.33;2.58;;;2.50;99.90;;;;;;4945708;28;20536;-85
2022/01/05 04:35:13;;;;;;;15.00;2.60;;;2.50;99.90;;;;;;4947352;28;20159;-87
2022/01/05 04:37:40;;;;;;;15.80;2.70;;;2.50;99.90;;;;;;4949799;28;20841;-87
2022/01/05 04:40:07;;;;;;;15.98;2.83;;;2.50;99.90;;;;;;4937945;28;20265;-85
2022/01/05 04:42:33;;;;;;;15.35;2.83;;;2.50;99.90;;;;;;4956490;28;20053;-85
2022/01/05 04:44:59;;;;;;;15.13;2.83;;;2.50;99.90;;;;;;4966947;28;20124;-86
2022/01/05 04:47:24;;;;;;;13.75;2.67;;;2.50;99.90;;;;;;4957149;28;20250;-86
2022/01/05 04:49:51;;;;;;;17.13;2.70;;;2.50;99.90;;;;;;4956074;28;21030;-87
2022/01/05 04:52:16;;;;;;;19.08;3.13;;;2.60;99.90;;;;;;4965011;28;20044;-86
2022/01/05 04:54:42;;;;;;;16.48;3.42;;;2.60;99.90;;;;;;4944429;28;20891;-87
2022/01/05 04:57:08;;;;;;;16.08;2.80;;;2.70;99.90;;;;;;4966904;28;20120;-87
2022/01/05 04:59:34;;;;;;;21.17;3.35;;;2.70;99.90;;;;;;4962026;28;20041;-87
2022/01/05 05:02:01;;;;;;;20.55;2.72;;;2.70;99.90;;;;;;4946606;28;20052;-87
2022/01/05 05:04:26;;;;;;;20.77;3.15;;;2.80;99.90;;;;;;4934337;28;20055;-86
2022/01/05 05:06:52;;;;;;;14.73;3.28;;;2.80;99.90;;;;;;4952776;28;20041;-87
2022/01/05 05:09:18;;;;;;;21.08;3.72;;;2.80;99.90;;;;;;4945015;28;20059;-86
2022/01/05 05:11:44;;;;;;;16.90;3.03;;;2.60;99.90;;;;;;4977666;28;20358;-85
2022/01/05 05:14:10;;;;;;;14.95;3.25;;;2.70;99.90;;;;;;4979166;28;20641;-87
2022/01/05 05:16:36;;;;;;;20.88;3.80;;;2.60;99.90;;;;;;4962804;28;20114;-86
2022/01/05 05:19:02;;;;;;;18.40;3.15;;;2.60;99.90;;;;;;4947628;28;20036;-87
2022/01/05 05:21:31;;;;;;;18.08;3.20;;;2.60;99.90;;;;;;4949502;28;20278;-85
2022/01/05 05:23:57;;;;;;;18.80;3.55;;;2.70;99.90;;;;;;4944839;28;20048;-87
2022/01/05 05:26:23;;;;;;;18.85;3.33;;;2.60;99.90;;;;;;4946408;28;20399;-86
2022/01/05 05:28:48;;;;;;;16.67;3.33;;;2.60;99.90;;;;;;4974396;28;20047;-84
2022/01/05 05:31:14;;;;;;;18.60;3.40;;;2.40;99.90;;;;;;4962759;28;20053;-85
2022/01/05 05:33:40;;;;;;;22.55;3.40;;;2.40;99.90;;;;;;4979508;28;20836;-84
2022/01/05 05:36:07;;;;;;;17.08;3.20;;;2.40;99.90;;;;;;4979245;28;20532;-88
2022/01/05 05:38:33;;;;;;;19.65;3.58;;;2.50;99.90;;;;;;4932745;28;20063;-88
2022/01/05 05:40:59;;;;;;;18.90;3.20;;;2.60;99.90;;;;;;4932429;28;20518;-87
2022/01/05 05:43:25;;;;;;;17.08;3.47;;;2.70;99.90;;;;;;4929330;28;20309;-85
2022/01/05 05:45:51;;;;;;;16.55;3.45;;;2.80;99.90;;;;;;4947565;28;20348;-89
2022/01/05 05:48:17;;;;;;;19.35;3.78;;;2.80;99.90;;;;;;4915015;28;20777;-88
2022/01/05 05:50:42;;;;;;;17.17;3.30;;;2.90;99.90;;;;;;4938206;28;20045;-85
2022/01/05 05:53:08;;;;;;;19.83;3.80;;;3.00;99.90;;;;;;4985181;28;20466;-86
2022/01/05 05:55:36;;;;;;;17.90;3.10;;;3.00;99.90;;;;;;4951570;28;20601;-86
2022/01/05 05:58:02;;;;;;;20.25;3.58;;;3.10;99.90;;;;;;4919924;28;20630;-86
2022/01/05 06:00:31;;;;;;;21.77;3.50;;;3.10;99.90;;;;;;4965917;28;20053;-86
2022/01/05 06:02:59;;;;;;;20.70;3.42;;;3.10;99.90;;;;;;4966136;28;20048;-87
2022/01/05 06:05:25;;;;;;;20.08;3.38;;;3.00;99.90;;;;;;4981003;28;20128;-87
2022/01/05 06:07:53;;;;;;;20.88;3.47;;;2.90;99.90;;;;;;4964090;28;20178;-86
2022/01/05 06:10:19;;;;;;;18.65;3.58;;;3.00;99.90;;;;;;4968172;28;20517;-86
2022/01/05 06:12:45;;;;;;;19.48;4.07;;;3.00;99.90;;;;;;4945030;28;20049;-85
2022/01/05 06:15:11;;;;;;;16.77;3.90;;;3.00;99.90;;;;;;4977253;28;20855;-88
2022/01/05 06:17:39;;;;;;;17.63;3.58;;;3.10;99.90;;;;;;4945207;28;20444;-88
2022/01/05 06:20:07;;;;;;;19.23;3.58;;;3.20;99.90;;;;;;4979183;28;20045;-86
2022/01/05 06:22:40;;;;;;;20.15;3.72;;;3.20;99.90;;;;;;4949728;28;20049;-86
2022/01/05 06:25:07;;;;;;;22.85;3.55;;;3.30;99.90;;;;;;4964264;28;20829;-87
2022/01/05 06:27:33;;;;;;;20.58;3.78;;;3.30;99.90;;;;;;4948700;28;20065;-86
2022/01/05 06:30:04;;;;;;;20.25;3.85;;;3.30;99.90;;;;;;4964601;28;20130;-88
2022/01/05 06:32:30;;;;;;;19.65;3.03;;;3.30;99.90;;;;;;4970376;28;20371;-86
2022/01/05 06:34:56;;;;;;;19.52;3.70;;;3.20;99.90;;;;;;4980490;28;20099;-89
2022/01/05 06:37:22;;;;;;;22.83;3.53;;;3.20;99.90;;;;;;4947708;28;21002;-87
2022/01/05 06:39:47;;;;;;;22.13;4.07;;;3.20;99.90;;;;;;4963395;28;20553;-87
2022/01/05 06:42:13;;;;;;;16.52;3.90;;;3.20;99.90;;;;;;4947748;28;20572;-85
2022/01/05 06:44:39;;;;;;;17.95;3.88;;;3.30;99.90;;;;;;4928960;28;20052;-87
2022/01/05 06:47:05;;;;;;;19.63;3.60;;;3.20;99.90;;;;;;4904797;28;20176;-86
2022/01/05 06:49:32;;;;;;;21.90;3.78;;;3.40;99.90;;;;;;4928645;28;20619;-88
2022/01/05 06:51:57;;;;;;;23.13;4.43;;;3.40;99.90;;;;;;4964045;28;20442;-86
2022/01/05 06:54:23;;;;;;;21.27;4.18;;;3.40;99.90;;;;;;4963614;28;20469;-87
2022/01/05 06:56:49;;;;;;;20.73;4.28;;;3.50;99.90;;;;;;4962688;28;20679;-88
2022/01/05 06:59:15;;;;;;;18.63;4.03;;;3.50;99.90;;;;;;4948220;28;20037;-85
2022/01/05 07:01:41;;;;;;;22.30;3.53;;;3.50;99.90;;;;;;4925758;28;20045;-87
2022/01/05 07:04:06;;;;;;;19.38;3.85;;;3.50;99.90;;;;;;4959835;28;20661;-89
2022/01/05 07:06:32;;;;;;;22.30;4.30;;;3.60;99.90;;;;;;4947500;28;20115;-88
2022/01/05 07:08:58;;;;;;;22.80;4.40;;;3.70;99.90;;;;;;4963402;28;20040;-86
2022/01/05 07:11:24;;;;;;;23.45;4.50;;;3.60;99.90;;;;;;4948888;28;20658;-86
2022/01/05 07:13:49;;;;;;;21.95;4.45;;;3.60;99.90;;;;;;4949130;28;20360;-85
2022/01/05 07:16:17;;;;;;;19.40;4.40;;;3.70;99.90;;;;;;4966467;28;20348;-87
2022/01/05 07:18:42;;;;;;;18.65;4.43;;;3.70;99.90;;;;;;4962591;28;20052;-87
2022/01/05 07:21:08;;;;;;;20.48;4.50;;;3.60;99.90;;;;;;4968085;28;20064;-87
2022/01/05 07:23:34;;;;;;;17.98;4.13;;;3.70;99.90;;;;;;4985772;28;20049;-88
2022/01/05 07:26:00;;;;;;;16.80;3.63;;;3.50;99.90;;;;;;4969057;28;20044;-87
2022/01/05 07:28:27;;;;;;;15.45;3.65;;;3.60;99.90;;;;;;4949167;28;20044;-85
2022/01/05 07:30:55;;;;;;;16.42;3.60;;;3.50;99.90;;;;;;4938039;28;20080;-93
2022/01/05 07:33:24;;;;;;;15.65;3.33;;;3.40;99.90;;;;;;4940426;28;20805;-86
2022/01/05 07:35:51;;;;;;;14.85;3.40;;;3.40;99.90;;;;;;4968166;28;20413;-88
2022/01/05 07:38:16;;;;;;;14.68;3.95;;;3.20;99.90;;;;;;4955837;28;20043;-90
2022/01/05 07:40:42;;;;;;;13.75;3.25;;;3.30;99.90;;;;;;4927876;28;20209;-90
2022/01/05 07:43:08;;;;;;;13.23;3.22;;;3.20;99.90;;;;;;4983011;28;20132;-90
2022/01/05 07:45:37;;;;;;;14.70;3.05;;;3.10;99.90;;;;;;4951763;28;20942;-94
2022/01/05 07:48:06;;;;;;;13.45;3.20;;;3.00;99.90;;;;;;4950471;28;20499;-91
2022/01/05 07:50:35;;;;;;;13.77;3.10;;;2.90;99.90;;;;;;4980700;28;20368;-89
2022/01/05 07:53:04;;;;;;;11.80;2.95;;;2.70;99.90;;;;;;4951752;28;20073;-90
2022/01/05 07:55:31;;;;;;;11.10;3.30;;;2.70;99.90;;;;;;4965888;28;20037;-94
2022/01/05 07:57:59;;;;;;;11.52;3.35;;;2.70;99.90;;;;;;4953829;28;20796;-87
2022/01/05 08:00:28;;;;;;;12.40;3.28;;;2.70;99.90;;;;;;4969820;28;20454;-95
2022/01/05 08:02:54;;;;;;;14.48;3.75;;;2.70;99.90;;;;;;4953943;28;20045;-92
2022/01/05 08:05:26;;;;;;;12.23;3.60;;;2.70;99.90;;;;;;4954052;28;20353;-94
2022/01/05 08:12:26;;;;;;;15.52;3.90;;;2.60;99.90;;;;;;4999639;28;20057;-96
2022/01/05 08:14:52;;;;;;;15.57;4.55;;;2.60;99.90;;;;;;4961025;28;20111;-94
2022/01/05 08:21:33;;;;;;;19.52;5.10;;;2.80;99.90;;;;;;5017611;28;20045;-96
2022/01/05 08:24:26;;;;;;;15.75;5.47;;;3.00;99.90;;;;;;4949849;28;20065;-94
2022/01/05 08:26:56;;;;;;;22.90;7.68;;;3.20;99.90;;;;;;4958454;28;21017;-88
2022/01/05 08:29:28;;;;;;;24.80;7.60;;;3.50;99.90;;;;;;4968192;28;20056;-92
2022/01/05 08:32:02;;;;;;;27.73;7.13;;;3.70;99.90;;;;;;4956135;28;20118;-95
2022/01/05 08:34:33;;;;;;;23.45;7.43;;;3.90;99.90;;;;;;4954622;28;20053;-89
2022/01/05 08:37:10;;;;;;;26.60;7.53;;;4.00;99.90;;;;;;4960811;28;20052;-93
2022/01/05 08:40:08;;;;;;;25.52;6.43;;;4.10;99.90;;;;;;4994924;28;20048;-95
2022/01/05 08:42:34;;;;;;;25.80;5.82;;;4.30;99.90;;;;;;4959030;28;20119;-92
2022/01/05 08:45:00;;;;;;;20.40;5.35;;;4.40;99.90;;;;;;4954960;28;20194;-91
2022/01/05 08:47:32;;;;;;;21.88;4.55;;;4.40;99.90;;;;;;4961619;28;20307;-93
2022/01/05 08:50:28;;;;;;;27.42;4.53;;;4.60;99.90;;;;;;4963801;28;20052;-92
2022/01/05 08:52:57;;;;;;;17.98;3.80;;;4.60;99.90;;;;;;4971317;28;20098;-91
2022/01/05 08:55:30;;;;;;;15.45;2.67;;;4.70;99.90;;;;;;4956417;28;20041;-94
2022/01/05 08:58:03;;;;;;;17.45;3.00;;;4.80;99.90;;;;;;4966431;28;20234;-95
2022/01/05 09:03:48;;;;;;;15.50;2.60;;;4.90;99.90;;;;;;5000064;28;20641;-90
2022/01/05 09:06:17;;;;;;;18.45;2.85;;;5.00;99.90;;;;;;4971435;28;20945;-93
2022/01/05 09:09:16;;;;;;;17.42;2.83;;;5.10;99.90;;;;;;4972172;28;20037;-96
2022/01/05 09:11:52;;;;;;;14.95;2.22;;;5.00;99.90;;;;;;4931315;28;20036;-94
2022/01/05 09:14:21;;;;;;;15.90;2.05;;;5.20;99.90;;;;;;4970087;28;20049;-94
2022/01/05 09:16:56;;;;;;;10.50;2.08;;;5.20;99.90;;;;;;4962918;28;20079;-94
2022/01/05 09:19:22;;;;;;;10.38;1.73;;;5.30;99.90;;;;;;4979425;28;20040;-91
2022/01/05 09:21:49;;;;;;;7.95;1.20;;;5.30;99.90;;;;;;4955429;28;20076;-90
2022/01/05 09:24:18;;;;;;;6.15;1.20;;;5.30;99.90;;;;;;4987286;28;20851;-88
2022/01/05 09:26:46;;;;;;;6.45;1.17;;;5.40;99.90;;;;;;4965133;28;20376;-91
2022/01/05 09:29:15;;;;;;;9.13;1.20;;;5.40;99.90;;;;;;4929407;28;20042;-90
2022/01/05 09:31:41;;;;;;;9.32;1.50;;;5.50;99.90;;;;;;4982932;28;20055;-92
2022/01/05 09:34:09;;;;;;;9.50;1.35;;;5.60;99.90;;;;;;4945843;28;20201;-88
2022/01/05 09:36:43;;;;;;;12.18;1.88;;;5.70;99.90;;;;;;4956768;28;20060;-91
2022/01/05 09:42:09;;;;;;;12.63;1.88;;;5.80;99.90;;;;;;4972919;28;20572;-93
2022/01/05 09:44:49;;;;;;;14.40;2.00;;;5.90;99.90;;;;;;4959093;28;20589;-89
2022/01/05 09:47:35;;;;;;;15.05;2.15;;;5.90;99.90;;;;;;4954185;28;20045;-91
2022/01/05 09:50:10;;;;;;;21.33;2.63;;;5.90;99.90;;;;;;4948907;28;20095;-92
2022/01/05 09:52:49;;;;;;;15.65;2.50;;;6.00;99.90;;;;;;4949411;28;20053;-93
2022/01/05 09:55:16;;;;;;;11.18;2.40;;;6.00;99.90;;;;;;4947874;28;20115;-90
2022/01/05 09:57:45;;;;;;;17.00;2.67;;;6.00;99.90;;;;;;4935514;28;20384;-89
2022/01/05 10:00:15;;;;;;;14.85;2.17;;;6.10;99.90;;;;;;4954851;28;20045;-90
2022/01/05 10:02:45;;;;;;;16.25;2.35;;;6.30;99.90;;;;;;4967678;28;20056;-90
2022/01/05 10:05:18;;;;;;;14.70;2.40;;;6.30;99.90;;;;;;4950377;28;20469;-88
2022/01/05 10:07:44;;;;;;;17.95;2.67;;;6.30;99.90;;;;;;4965784;28;20325;-89
2022/01/05 10:10:19;;;;;;;13.70;2.72;;;6.30;99.90;;;;;;4948154;28;22140;-95
2022/01/05 10:12:45;;;;;;;16.13;1.98;;;6.30;99.90;;;;;;4962794;28;20106;-93
2022/01/05 10:15:13;;;;;;;20.15;3.00;;;6.30;99.90;;;;;;4958161;28;20291;-92
2022/01/05 10:17:40;;;;;;;19.70;2.92;;;6.30;99.90;;;;;;4983816;28;20038;-90
2022/01/05 10:20:13;;;;;;;16.58;2.70;;;6.20;99.90;;;;;;4958351;28;20055;-96
2022/01/05 10:22:40;;;;;;;19.63;3.13;;;6.20;99.90;;;;;;4988672;28;20561;-92
2022/01/05 10:25:23;;;;;;;20.27;3.22;;;6.30;99.90;;;;;;4978928;28;20758;-91
2022/01/05 10:28:26;;;;;;;13.95;2.22;;;6.30;99.90;;;;;;4948411;28;20045;-92
2022/01/05 10:30:55;;;;;;;13.23;2.42;;;6.30;99.90;;;;;;4961986;28;20045;-92
2022/01/05 10:33:33;;;;;;;15.65;2.58;;;6.20;99.90;;;;;;4944194;28;20045;-90
2022/01/05 10:36:01;;;;;;;18.45;2.83;;;6.30;99.90;;;;;;4942180;28;20450;-92
2022/01/05 10:38:41;;;;;;;18.80;2.63;;;6.30;99.90;;;;;;4939633;28;21039;-90
2022/01/05 10:41:21;;;;;;;16.70;2.95;;;6.40;99.90;;;;;;4971217;28;20072;-91
2022/01/05 10:44:19;;;;;;;18.92;3.00;;;6.40;99.90;;;;;;4945077;28;20209;-95
2022/01/05 10:46:58;;;;;;;19.95;2.83;;;6.50;99.90;;;;;;4948609;28;20049;-87
2022/01/05 10:49:36;;;;;;;18.13;2.80;;;6.50;99.90;;;;;;4949208;28;20569;-91
2022/01/05 10:52:21;;;;;;;19.80;3.55;;;6.60;99.90;;;;;;4949454;28;20491;-92
2022/01/05 10:54:54;;;;;;;14.98;2.60;;;6.90;99.90;;;;;;4957351;28;20563;-88
2022/01/05 10:57:23;;;;;;;17.88;3.08;;;6.90;99.90;;;;;;4937840;28;20036;-90
2022/01/05 10:59:53;;;;;;;18.58;2.67;;;7.00;99.90;;;;;;4956726;28;20143;-90
2022/01/05 11:02:27;;;;;;;20.23;2.88;;;7.10;99.90;;;;;;4946716;28;20132;-90
2022/01/05 11:05:14;;;;;;;16.60;3.08;;;7.30;99.90;;;;;;4967409;28;20040;-90
2022/01/05 11:07:42;;;;;;;18.65;3.13;;;7.30;99.90;;;;;;4972180;28;20045;-92
2022/01/05 11:10:26;;;;;;;19.63;3.45;;;7.40;99.90;;;;;;4975527;28;20053;-87
2022/01/05 11:12:53;;;;;;;18.42;2.90;;;7.30;99.90;;;;;;4947090;28;20041;-90
2022/01/05 11:15:29;;;;;;;18.10;2.75;;;7.30;99.90;;;;;;4937065;28;20599;-87
2022/01/05 11:18:08;;;;;;;16.50;3.15;;;7.30;99.90;;;;;;4965421;28;20036;-90
2022/01/05 11:20:37;;;;;;;19.02;3.50;;;7.30;99.90;;;;;;4946128;28;20080;-91
2022/01/05 11:23:04;;;;;;;19.90;2.58;;;7.30;99.90;;;;;;4935968;28;20379;-92
2022/01/05 11:25:50;;;;;;;17.67;3.10;;;7.30;99.90;;;;;;4926428;28;20056;-92
2022/01/05 11:28:18;;;;;;;17.90;2.88;;;7.40;99.90;;;;;;4944605;28;20060;-89
2022/01/05 11:30:52;;;;;;;19.17;3.15;;;7.60;99.90;;;;;;4954121;28;20056;-89
2022/01/05 11:33:20;;;;;;;14.52;2.47;;;7.80;99.90;;;;;;4961144;28;20876;-90
2022/01/05 11:35:49;;;;;;;18.75;2.70;;;7.90;99.90;;;;;;4971777;28;20490;-88
2022/01/05 11:38:45;;;;;;;15.25;2.80;;;7.80;99.90;;;;;;4945866;28;20044;-94
2022/01/05 11:41:19;;;;;;;16.90;2.80;;;7.90;99.90;;;;;;4964215;28;20222;-89
2022/01/05 11:43:45;;;;;;;16.38;3.03;;;7.90;99.90;;;;;;4949501;28;20045;-93
2022/01/05 11:46:20;;;;;;;18.10;3.45;;;8.10;99.90;;;;;;4945363;28;20045;-91
2022/01/05 11:49:08;;;;;;;18.35;3.28;;;8.10;99.90;;;;;;4953460;28;20041;-91
2022/01/05 11:51:46;;;;;;;19.75;3.10;;;8.00;99.90;;;;;;4948227;28;20118;-90
2022/01/05 11:55:13;;;;;;;18.30;3.10;;;8.10;99.90;;;;;;4985708;28;20925;-95
2022/01/05 11:58:33;;;;;;;18.08;3.03;;;8.30;99.90;;;;;;4937961;28;20132;-96
2022/01/05 12:01:21;;;;;;;20.05;3.03;;;8.10;99.90;;;;;;4945491;28;20209;-90
2022/01/05 12:04:14;;;;;;;18.55;3.75;;;8.20;99.90;;;;;;4976422;28;20047;-89
2022/01/05 12:06:43;;;;;;;16.30;2.88;;;8.10;99.90;;;;;;4955957;28;20049;-92
2022/01/05 12:09:23;;;;;;;14.95;2.72;;;8.00;99.90;;;;;;4958385;28;20045;-88
2022/01/05 12:11:49;;;;;;;17.63;3.25;;;8.10;99.90;;;;;;4970715;28;20182;-89
2022/01/05 12:14:21;;;;;;;18.35;3.00;;;8.10;99.90;;;;;;4954975;28;20057;-88
2022/01/05 12:16:59;;;;;;;19.23;2.80;;;8.10;99.90;;;;;;4944987;28;20087;-90
2022/01/05 12:19:47;;;;;;;16.55;2.67;;;8.20;99.90;;;;;;4943135;28;20061;-88
2022/01/05 12:22:24;;;;;;;17.80;2.95;;;8.20;99.90;;;;;;4938429;28;20049;-86
2022/01/05 12:24:55;;;;;;;18.30;2.95;;;8.10;99.90;;;;;;4967132;28;20087;-92
2022/01/05 12:27:25;;;;;;;17.42;2.85;;;8.00;99.90;;;;;;4945862;28;20053;-90
2022/01/05 12:29:52;;;;;;;17.95;2.85;;;7.90;99.90;;;;;;4943443;28;20204;-88
2022/01/05 12:32:35;;;;;;;19.38;2.75;;;8.00;99.90;;;;;;5001581;28;20164;-90
2022/01/05 12:35:07;;;;;;;14.45;2.80;;;8.00;99.90;;;;;;4970559;28;20044;-87
2022/01/05 12:37:44;;;;;;;14.65;2.10;;;8.00;99.90;;;;;;4979806;28;20426;-87
2022/01/05 12:40:27;;;;;;;13.82;2.22;;;7.80;99.90;;;;;;4994830;28;20271;-93
2022/01/05 12:43:08;;;;;;;13.65;2.33;;;7.70;99.90;;;;;;4997645;28;20059;-91
2022/01/05 12:45:43;;;;;;;15.40;2.35;;;7.60;99.90;;;;;;4969340;28;20522;-91
2022/01/05 12:48:33;;;;;;;15.82;2.45;;;7.70;99.90;;;;;;4968427;28;20068;-93
2022/01/05 12:51:17;;;;;;;12.82;2.08;;;7.70;99.90;;;;;;4934088;28;20096;-87
2022/01/05 12:53:56;;;;;;;14.73;2.70;;;7.70;99.90;;;;;;4977178;28;20049;-90
2022/01/05 12:56:26;;;;;;;16.70;2.88;;;7.80;99.90;;;;;;4994327;28;20364;-94
2022/01/05 12:58:53;;;;;;;17.10;2.95;;;8.00;99.90;;;;;;4964428;28;20045;-91
2022/01/05 13:01:20;;;;;;;15.65;2.42;;;7.90;99.90;;;;;;4996425;28;20059;-92
2022/01/05 13:03:46;;;;;;;16.50;2.70;;;7.80;99.90;;;;;;4957705;28;20053;-90
2022/01/05 13:06:23;;;;;;;16.33;3.45;;;7.70;99.90;;;;;;4963084;28;20041;-91
2022/01/05 13:08:55;;;;;;;14.95;3.05;;;8.00;99.90;;;;;;4963500;28;20045;-90
2022/01/05 13:11:43;;;;;;;15.30;2.97;;;7.90;99.90;;;;;;4998728;28;20083;-91
2022/01/05 13:14:22;;;;;;;13.27;2.50;;;7.90;99.90;;;;;;4959398;28;20045;-89
2022/01/05 13:17:06;;;;;;;14.38;2.97;;;7.90;99.90;;;;;;4950559;28;20072;-93